首页
METAR-TAF:

METAR-TAF

机场 :

伊斯特爾, 法国

纬度: 43-31N, 经度: 004-56E, 海拔: 23米

当前天气观测

该预报发布于14分钟前的17:30 UTC
风速8节,风向
温度 18°C
湿度 83%
气压 1013 hPa
能见度10公里或以上
少量云层高于1100英尺
多云层高于15000英尺
阴天层高于21000英尺

METAR: LFMI 241730Z AUTO 17008KT 9999 FEW011 BKN150 OVC210 18/15 Q1013 NOSIG

时间: 19:44 (17:44 UTC)

预报

该预报发布于2小时和11分钟前的15:33 UTC
预报有效从24日的 15点(UTC)到 25日的 15点(UTC)
风速10节,风向
能见度10公里或以上
散云层高于1500英尺
多云层高于12000英尺
成为
从 24日的 20点(UTC)到 24日的 21点(UTC)
风速5节,风向多变
短暂存在
从 25日的 00点(UTC)到 25日的 06点(UTC)
多云层高于700英尺
成为
从 25日的 09点(UTC)到 25日的 11点(UTC)
风速10节,风向
短暂存在
从 25日的 12点(UTC)到 25日的 15点(UTC)
能見度: 5000
多云层高于4000英尺
阵雨

TAF: LFMI 241533Z 2415/2515 17010KT 9999 SCT015 BKN120 BECMG 2420/2421 VRB05KT TEMPO 2500/2506 BKN007 BECMG 2509/2511 19010KT TEMPO 2512/2515 5000 SHRA BKN040

超过4000个机场的气象观测和天气预报(METAR&TAF报告)。

可查询的气象台以黄色和红色小点在地图上表示。

将鼠标移到小点上方,可查看气象台名称。

然后点击查看天气观测和预报。

如需切换地图:点击带黑十字的绿色按钮放大地图;点击带横线的绿色按钮缩小地图;或者点击绿色箭头查看邻近地区的地图。


METAR-TAF: